sensor_id;sensor_type;location;lat;lon;timestamp;P1;durP1;ratioP1;P2;durP2;ratioP2
44143;SDS011;43510;51.920;4.492;2023-02-23T00:01:17;76.82;;;27.88;;
44143;SDS011;43510;51.920;4.492;2023-02-23T00:03:47;79.45;;;29.65;;
44143;SDS011;43510;51.920;4.492;2023-02-23T00:06:14;79.10;;;28.65;;
44143;SDS011;43510;51.920;4.492;2023-02-23T00:08:41;70.72;;;26.95;;
44143;SDS011;43510;51.920;4.492;2023-02-23T00:11:08;78.65;;;28.25;;
44143;SDS011;43510;51.920;4.492;2023-02-23T00:13:39;84.40;;;29.90;;
44143;SDS011;43510;51.920;4.492;2023-02-23T00:16:12;73.13;;;26.20;;
44143;SDS011;43510;51.920;4.492;2023-02-23T00:18:44;69.38;;;26.45;;
44143;SDS011;43510;51.920;4.492;2023-02-23T00:21:24;73.28;;;27.50;;
44143;SDS011;43510;51.920;4.492;2023-02-23T00:23:57;79.22;;;28.63;;
44143;SDS011;43510;51.920;4.492;2023-02-23T00:26:26;76.10;;;28.13;;
44143;SDS011;43510;51.920;4.492;2023-02-23T00:28:55;79.57;;;28.42;;
44143;SDS011;43510;51.920;4.492;2023-02-23T00:31:22;84.28;;;30.08;;
44143;SDS011;43510;51.920;4.492;2023-02-23T00:33:50;78.85;;;29.90;;
44143;SDS011;43510;51.920;4.492;2023-02-23T00:36:18;86.78;;;31.80;;
44143;SDS011;43510;51.920;4.492;2023-02-23T00:38:46;94.22;;;29.50;;
44143;SDS011;43510;51.920;4.492;2023-02-23T00:41:12;80.95;;;28.75;;
44143;SDS011;43510;51.920;4.492;2023-02-23T00:43:55;86.68;;;29.83;;
44143;SDS011;43510;51.920;4.492;2023-02-23T00:46:24;75.07;;;28.17;;
44143;SDS011;43510;51.920;4.492;2023-02-23T00:48:53;80.03;;;28.67;;
44143;SDS011;43510;51.920;4.492;2023-02-23T00:51:22;90.32;;;28.88;;
44143;SDS011;43510;51.920;4.492;2023-02-23T00:53:57;79.18;;;29.55;;
44143;SDS011;43510;51.920;4.492;2023-02-23T00:56:24;81.00;;;29.05;;
44143;SDS011;43510;51.920;4.492;2023-02-23T00:58:50;79.35;;;28.70;;
44143;SDS011;43510;51.920;4.492;2023-02-23T01:01:15;88.75;;;30.05;;
44143;SDS011;43510;51.920;4.492;2023-02-23T01:03:41;81.35;;;29.67;;
44143;SDS011;43510;51.920;4.492;2023-02-23T01:06:12;89.20;;;29.80;;
44143;SDS011;43510;51.920;4.492;2023-02-23T01:08:41;82.82;;;27.40;;
44143;SDS011;43510;51.920;4.492;2023-02-23T01:11:10;75.50;;;28.13;;
44143;SDS011;43510;51.920;4.492;2023-02-23T01:13:41;84.57;;;28.92;;
44143;SDS011;43510;51.920;4.492;2023-02-23T01:16:14;83.45;;;29.35;;
44143;SDS011;43510;51.920;4.492;2023-02-23T01:18:42;73.38;;;27.33;;
44143;SDS011;43510;51.920;4.492;2023-02-23T01:21:22;79.75;;;29.23;;
44143;SDS011;43510;51.920;4.492;2023-02-23T01:23:50;73.93;;;28.88;;
44143;SDS011;43510;51.920;4.492;2023-02-23T01:26:24;82.30;;;28.90;;
44143;SDS011;43510;51.920;4.492;2023-02-23T01:28:55;82.07;;;26.25;;
44143;SDS011;43510;51.920;4.492;2023-02-23T01:31:22;88.90;;;28.50;;
44143;SDS011;43510;51.920;4.492;2023-02-23T01:33:53;74.70;;;27.13;;
44143;SDS011;43510;51.920;4.492;2023-02-23T01:38:48;85.03;;;28.08;;
44143;SDS011;43510;51.920;4.492;2023-02-23T01:41:13;78.10;;;27.35;;
44143;SDS011;43510;51.920;4.492;2023-02-23T01:43:56;78.85;;;28.02;;
44143;SDS011;43510;51.920;4.492;2023-02-23T01:46:23;83.88;;;26.90;;
44143;SDS011;43510;51.920;4.492;2023-02-23T01:48:48;83.05;;;26.65;;
44143;SDS011;43510;51.920;4.492;2023-02-23T01:53:55;74.38;;;27.85;;
44143;SDS011;43510;51.920;4.492;2023-02-23T01:56:26;73.55;;;26.77;;
44143;SDS011;43510;51.920;4.492;2023-02-23T01:58:56;71.10;;;25.95;;
44143;SDS011;43510;51.920;4.492;2023-02-23T02:01:26;84.10;;;28.60;;
44143;SDS011;43510;51.920;4.492;2023-02-23T02:03:55;73.95;;;25.63;;
44143;SDS011;43510;51.920;4.492;2023-02-23T02:06:23;74.93;;;26.60;;
44143;SDS011;43510;51.920;4.492;2023-02-23T02:08:54;74.38;;;25.90;;
44143;SDS011;43510;51.920;4.492;2023-02-23T02:11:31;76.10;;;25.90;;
44143;SDS011;43510;51.920;4.492;2023-02-23T02:25:45;69.22;;;25.05;;
44143;SDS011;43510;51.920;4.492;2023-02-23T04:30:17;80.38;;;26.13;;
44143;SDS011;43510;51.920;4.492;2023-02-23T04:32:44;73.40;;;24.60;;
44143;SDS011;43510;51.920;4.492;2023-02-23T04:35:11;73.85;;;25.67;;
44143;SDS011;43510;51.920;4.492;2023-02-23T04:37:36;74.68;;;25.83;;
44143;SDS011;43510;51.920;4.492;2023-02-23T04:40:02;73.03;;;25.58;;
44143;SDS011;43510;51.920;4.492;2023-02-23T04:42:28;72.15;;;23.65;;
44143;SDS011;43510;51.920;4.492;2023-02-23T04:44:54;74.15;;;23.63;;
44143;SDS011;43510;51.920;4.492;2023-02-23T04:47:19;73.18;;;25.00;;
44143;SDS011;43510;51.920;4.492;2023-02-23T04:49:45;80.93;;;25.52;;
44143;SDS011;43510;51.920;4.492;2023-02-23T04:52:10;70.32;;;23.70;;
44143;SDS011;43510;51.920;4.492;2023-02-23T04:54:37;75.65;;;25.67;;
44143;SDS011;43510;51.920;4.492;2023-02-23T04:57:03;80.25;;;26.00;;
44143;SDS011;43510;51.920;4.492;2023-02-23T04:59:29;72.88;;;25.13;;
44143;SDS011;43510;51.920;4.492;2023-02-23T05:01:55;67.53;;;23.80;;
44143;SDS011;43510;51.920;4.492;2023-02-23T05:04:20;75.38;;;24.63;;
44143;SDS011;43510;51.920;4.492;2023-02-23T05:06:46;72.15;;;24.15;;
44143;SDS011;43510;51.920;4.492;2023-02-23T05:09:12;72.68;;;23.08;;
44143;SDS011;43510;51.920;4.492;2023-02-23T05:11:37;72.78;;;24.65;;
44143;SDS011;43510;51.920;4.492;2023-02-23T05:14:03;81.57;;;24.77;;
44143;SDS011;43510;51.920;4.492;2023-02-23T05:16:28;74.53;;;25.48;;
44143;SDS011;43510;51.920;4.492;2023-02-23T05:18:54;78.13;;;24.52;;
44143;SDS011;43510;51.920;4.492;2023-02-23T05:21:19;82.78;;;25.27;;
44143;SDS011;43510;51.920;4.492;2023-02-23T05:23:45;79.10;;;25.92;;
44143;SDS011;43510;51.920;4.492;2023-02-23T05:26:12;77.13;;;25.27;;
44143;SDS011;43510;51.920;4.492;2023-02-23T05:28:39;74.22;;;25.23;;
44143;SDS011;43510;51.920;4.492;2023-02-23T05:31:05;81.20;;;25.83;;
44143;SDS011;43510;51.920;4.492;2023-02-23T05:33:32;84.22;;;25.25;;
44143;SDS011;43510;51.920;4.492;2023-02-23T05:35:58;78.30;;;25.08;;
44143;SDS011;43510;51.920;4.492;2023-02-23T05:38:24;77.68;;;25.95;;
44143;SDS011;43510;51.920;4.492;2023-02-23T05:40:51;78.43;;;25.75;;
44143;SDS011;43510;51.920;4.492;2023-02-23T05:43:19;86.95;;;27.40;;
44143;SDS011;43510;51.920;4.492;2023-02-23T06:03:59;82.70;;;26.10;;
44143;SDS011;43510;51.920;4.492;2023-02-23T06:14:09;86.03;;;26.80;;
44143;SDS011;43510;51.920;4.492;2023-02-23T06:32:07;80.75;;;26.00;;
44143;SDS011;43510;51.920;4.492;2023-02-23T07:18:29;69.07;;;23.20;;
44143;SDS011;43510;51.920;4.492;2023-02-23T07:20:55;72.05;;;22.52;;
44143;SDS011;43510;51.920;4.492;2023-02-23T07:23:20;79.20;;;24.50;;
44143;SDS011;43510;51.920;4.492;2023-02-23T07:31:00;70.57;;;22.70;;
44143;SDS011;43510;51.920;4.492;2023-02-23T07:33:30;69.93;;;22.55;;
44143;SDS011;43510;51.920;4.492;2023-02-23T07:35:57;71.00;;;23.67;;
44143;SDS011;43510;51.920;4.492;2023-02-23T07:38:23;75.50;;;24.17;;
44143;SDS011;43510;51.920;4.492;2023-02-23T07:40:49;65.78;;;22.05;;
44143;SDS011;43510;51.920;4.492;2023-02-23T07:43:15;67.25;;;20.33;;
44143;SDS011;43510;51.920;4.492;2023-02-23T07:45:40;63.75;;;20.70;;
44143;SDS011;43510;51.920;4.492;2023-02-23T07:48:05;68.10;;;22.02;;
44143;SDS011;43510;51.920;4.492;2023-02-23T07:50:31;65.68;;;22.88;;
44143;SDS011;43510;51.920;4.492;2023-02-23T07:52:57;73.22;;;21.98;;
44143;SDS011;43510;51.920;4.492;2023-02-23T07:55:23;70.50;;;23.58;;
44143;SDS011;43510;51.920;4.492;2023-02-23T07:57:48;61.83;;;22.33;;
44143;SDS011;43510;51.920;4.492;2023-02-23T08:00:13;75.53;;;24.00;;
44143;SDS011;43510;51.920;4.492;2023-02-23T08:02:39;73.43;;;22.10;;
44143;SDS011;43510;51.920;4.492;2023-02-23T08:05:05;69.45;;;23.27;;
44143;SDS011;43510;51.920;4.492;2023-02-23T08:07:31;71.13;;;22.63;;
44143;SDS011;43510;51.920;4.492;2023-02-23T08:09:58;64.60;;;21.90;;
44143;SDS011;43510;51.920;4.492;2023-02-23T08:12:24;60.92;;;22.42;;
44143;SDS011;43510;51.920;4.492;2023-02-23T08:14:49;58.05;;;20.40;;
44143;SDS011;43510;51.920;4.492;2023-02-23T08:17:15;63.63;;;21.30;;
44143;SDS011;43510;51.920;4.492;2023-02-23T08:19:40;57.20;;;18.38;;
44143;SDS011;43510;51.920;4.492;2023-02-23T08:22:06;62.15;;;20.50;;
44143;SDS011;43510;51.920;4.492;2023-02-23T08:24:32;66.82;;;21.55;;
44143;SDS011;43510;51.920;4.492;2023-02-23T08:26:58;55.00;;;19.05;;
44143;SDS011;43510;51.920;4.492;2023-02-23T08:29:25;61.60;;;20.60;;
44143;SDS011;43510;51.920;4.492;2023-02-23T08:31:51;59.38;;;19.45;;
44143;SDS011;43510;51.920;4.492;2023-02-23T08:34:17;53.58;;;18.73;;
44143;SDS011;43510;51.920;4.492;2023-02-23T08:36:45;51.92;;;18.70;;
44143;SDS011;43510;51.920;4.492;2023-02-23T08:39:11;49.20;;;17.67;;
44143;SDS011;43510;51.920;4.492;2023-02-23T08:41:37;46.97;;;16.10;;
44143;SDS011;43510;51.920;4.492;2023-02-23T08:44:04;51.25;;;17.45;;
44143;SDS011;43510;51.920;4.492;2023-02-23T08:46:35;36.83;;;13.98;;
44143;SDS011;43510;51.920;4.492;2023-02-23T08:49:01;38.92;;;14.60;;
44143;SDS011;43510;51.920;4.492;2023-02-23T08:51:28;35.10;;;12.90;;
44143;SDS011;43510;51.920;4.492;2023-02-23T08:53:54;34.20;;;12.85;;
44143;SDS011;43510;51.920;4.492;2023-02-23T08:56:21;33.20;;;11.98;;
44143;SDS011;43510;51.920;4.492;2023-02-23T09:24:40;17.65;;;7.15;;
44143;SDS011;43510;51.920;4.492;2023-02-23T12:17:48;12.13;;;5.35;;
44143;SDS011;43510;51.920;4.492;2023-02-23T12:20:28;13.82;;;5.70;;
44143;SDS011;43510;51.920;4.492;2023-02-23T12:22:57;14.18;;;5.70;;
44143;SDS011;43510;51.920;4.492;2023-02-23T12:28:23;16.33;;;5.50;;
44143;SDS011;43510;51.920;4.492;2023-02-23T12:31:42;13.65;;;5.10;;
44143;SDS011;43510;51.920;4.492;2023-02-23T12:34:23;13.13;;;5.25;;
44143;SDS011;43510;51.920;4.492;2023-02-23T12:39:45;17.33;;;5.25;;
44143;SDS011;43510;51.920;4.492;2023-02-23T12:42:16;16.00;;;5.90;;
44143;SDS011;43510;51.920;4.492;2023-02-23T12:47:20;13.27;;;5.22;;
44143;SDS011;43510;51.920;4.492;2023-02-23T12:49:54;13.00;;;5.55;;
44143;SDS011;43510;51.920;4.492;2023-02-23T12:52:39;12.73;;;5.60;;
44143;SDS011;43510;51.920;4.492;2023-02-23T12:55:11;15.85;;;5.75;;
44143;SDS011;43510;51.920;4.492;2023-02-23T13:06:15;15.45;;;6.57;;
44143;SDS011;43510;51.920;4.492;2023-02-23T13:14:24;21.33;;;7.38;;
44143;SDS011;43510;51.920;4.492;2023-02-23T13:16:58;21.75;;;8.48;;
44143;SDS011;43510;51.920;4.492;2023-02-23T13:24:34;24.65;;;9.93;;
44143;SDS011;43510;51.920;4.492;2023-02-23T13:30:14;22.52;;;9.70;;
44143;SDS011;43510;51.920;4.492;2023-02-23T13:32:40;23.60;;;10.15;;
44143;SDS011;43510;51.920;4.492;2023-02-23T13:35:06;27.98;;;10.77;;
44143;SDS011;43510;51.920;4.492;2023-02-23T13:37:40;23.27;;;9.20;;
44143;SDS011;43510;51.920;4.492;2023-02-23T13:46:02;26.27;;;9.63;;
44143;SDS011;43510;51.920;4.492;2023-02-23T14:38:27;18.83;;;7.10;;
44143;SDS011;43510;51.920;4.492;2023-02-23T14:40:58;20.48;;;7.55;;
44143;SDS011;43510;51.920;4.492;2023-02-23T14:46:26;19.13;;;6.65;;
44143;SDS011;43510;51.920;4.492;2023-02-23T14:49:04;17.95;;;6.63;;
44143;SDS011;43510;51.920;4.492;2023-02-23T14:51:40;16.70;;;6.93;;
44143;SDS011;43510;51.920;4.492;2023-02-23T14:56:57;18.10;;;6.95;;
44143;SDS011;43510;51.920;4.492;2023-02-23T14:59:26;16.90;;;6.45;;
44143;SDS011;43510;51.920;4.492;2023-02-23T15:01:54;16.08;;;6.78;;
44143;SDS011;43510;51.920;4.492;2023-02-23T15:04:25;14.27;;;6.23;;
44143;SDS011;43510;51.920;4.492;2023-02-23T15:06:54;13.32;;;5.22;;
44143;SDS011;43510;51.920;4.492;2023-02-23T15:09:33;17.45;;;6.32;;
44143;SDS011;43510;51.920;4.492;2023-02-23T15:12:06;14.70;;;5.95;;
44143;SDS011;43510;51.920;4.492;2023-02-23T15:14:37;17.80;;;6.65;;
44143;SDS011;43510;51.920;4.492;2023-02-23T15:17:03;15.02;;;5.63;;
44143;SDS011;43510;51.920;4.492;2023-02-23T15:19:33;14.25;;;5.65;;
44143;SDS011;43510;51.920;4.492;2023-02-23T15:22:00;17.30;;;6.40;;
44143;SDS011;43510;51.920;4.492;2023-02-23T15:24:31;16.85;;;5.53;;
44143;SDS011;43510;51.920;4.492;2023-02-23T15:27:05;19.13;;;6.28;;
44143;SDS011;43510;51.920;4.492;2023-02-23T15:29:40;18.85;;;7.00;;
44143;SDS011;43510;51.920;4.492;2023-02-23T15:32:10;16.17;;;5.95;;
44143;SDS011;43510;51.920;4.492;2023-02-23T15:34:49;16.30;;;5.65;;
44143;SDS011;43510;51.920;4.492;2023-02-23T15:40:15;9.45;;;4.22;;
44143;SDS011;43510;51.920;4.492;2023-02-23T15:42:46;13.13;;;3.67;;
44143;SDS011;43510;51.920;4.492;2023-02-23T15:45:20;13.30;;;3.70;;
44143;SDS011;43510;51.920;4.492;2023-02-23T15:47:47;8.30;;;2.90;;
44143;SDS011;43510;51.920;4.492;2023-02-23T15:50:18;9.48;;;2.65;;
44143;SDS011;43510;51.920;4.492;2023-02-23T15:52:56;9.35;;;2.80;;
44143;SDS011;43510;51.920;4.492;2023-02-23T15:55:25;13.32;;;2.50;;
44143;SDS011;43510;51.920;4.492;2023-02-23T15:57:54;12.15;;;3.15;;
44143;SDS011;43510;51.920;4.492;2023-02-23T16:00:32;12.60;;;5.43;;
44143;SDS011;43510;51.920;4.492;2023-02-23T16:03:02;19.80;;;6.22;;
44143;SDS011;43510;51.920;4.492;2023-02-23T16:05:30;17.00;;;6.40;;
44143;SDS011;43510;51.920;4.492;2023-02-23T16:08:46;15.65;;;6.90;;
44143;SDS011;43510;51.920;4.492;2023-02-23T16:13:41;12.40;;;3.83;;
44143;SDS011;43510;51.920;4.492;2023-02-23T16:16:08;12.50;;;3.33;;
44143;SDS011;43510;51.920;4.492;2023-02-23T16:18:44;10.65;;;3.00;;
44143;SDS011;43510;51.920;4.492;2023-02-23T16:21:16;11.70;;;2.80;;
44143;SDS011;43510;51.920;4.492;2023-02-23T16:23:46;12.25;;;3.08;;
44143;SDS011;43510;51.920;4.492;2023-02-23T16:26:22;12.60;;;2.78;;
44143;SDS011;43510;51.920;4.492;2023-02-23T16:28:50;12.98;;;3.22;;
44143;SDS011;43510;51.920;4.492;2023-02-23T16:31:24;15.13;;;3.47;;
44143;SDS011;43510;51.920;4.492;2023-02-23T16:34:16;15.70;;;3.42;;
44143;SDS011;43510;51.920;4.492;2023-02-23T16:36:59;13.60;;;3.03;;
44143;SDS011;43510;51.920;4.492;2023-02-23T16:39:41;22.35;;;4.00;;
44143;SDS011;43510;51.920;4.492;2023-02-23T16:42:08;15.52;;;3.40;;
44143;SDS011;43510;51.920;4.492;2023-02-23T16:44:46;25.60;;;4.53;;
44143;SDS011;43510;51.920;4.492;2023-02-23T16:47:31;17.27;;;3.13;;
44143;SDS011;43510;51.920;4.492;2023-02-23T16:50:00;20.05;;;3.42;;
44143;SDS011;43510;51.920;4.492;2023-02-23T16:52:26;14.80;;;3.45;;
44143;SDS011;43510;51.920;4.492;2023-02-23T16:54:51;24.35;;;3.83;;
44143;SDS011;43510;51.920;4.492;2023-02-23T16:57:18;24.60;;;4.07;;
44143;SDS011;43510;51.920;4.492;2023-02-23T16:59:48;16.08;;;3.25;;
44143;SDS011;43510;51.920;4.492;2023-02-23T17:02:15;19.48;;;4.28;;
44143;SDS011;43510;51.920;4.492;2023-02-23T17:04:43;21.58;;;3.97;;
44143;SDS011;43510;51.920;4.492;2023-02-23T17:07:13;21.52;;;3.55;;
44143;SDS011;43510;51.920;4.492;2023-02-23T17:09:40;11.93;;;3.10;;
44143;SDS011;43510;51.920;4.492;2023-02-23T17:12:05;20.73;;;3.10;;
44143;SDS011;43510;51.920;4.492;2023-02-23T17:14:32;22.25;;;3.50;;
44143;SDS011;43510;51.920;4.492;2023-02-23T17:16:58;16.45;;;3.33;;
44143;SDS011;43510;51.920;4.492;2023-02-23T17:19:23;22.80;;;4.15;;
44143;SDS011;43510;51.920;4.492;2023-02-23T17:21:49;23.77;;;2.92;;
44143;SDS011;43510;51.920;4.492;2023-02-23T17:24:14;25.40;;;4.50;;
44143;SDS011;43510;51.920;4.492;2023-02-23T17:26:40;30.38;;;4.47;;
44143;SDS011;43510;51.920;4.492;2023-02-23T17:29:06;29.98;;;3.63;;
44143;SDS011;43510;51.920;4.492;2023-02-23T17:31:32;31.35;;;4.40;;
44143;SDS011;43510;51.920;4.492;2023-02-23T17:33:58;33.13;;;4.60;;
44143;SDS011;43510;51.920;4.492;2023-02-23T17:36:23;25.58;;;4.20;;
44143;SDS011;43510;51.920;4.492;2023-02-23T17:38:51;21.02;;;3.72;;
44143;SDS011;43510;51.920;4.492;2023-02-23T17:41:22;33.08;;;3.92;;
44143;SDS011;43510;51.920;4.492;2023-02-23T17:43:49;28.48;;;4.20;;
44143;SDS011;43510;51.920;4.492;2023-02-23T17:46:14;32.20;;;4.38;;
44143;SDS011;43510;51.920;4.492;2023-02-23T17:48:39;31.05;;;4.05;;
44143;SDS011;43510;51.920;4.492;2023-02-23T17:51:08;24.88;;;5.13;;
44143;SDS011;43510;51.920;4.492;2023-02-23T17:53:38;28.65;;;4.00;;
44143;SDS011;43510;51.920;4.492;2023-02-23T17:56:04;32.80;;;3.83;;
44143;SDS011;43510;51.920;4.492;2023-02-23T17:58:30;28.35;;;3.67;;
44143;SDS011;43510;51.920;4.492;2023-02-23T18:00:56;32.60;;;3.83;;
44143;SDS011;43510;51.920;4.492;2023-02-23T18:03:24;26.38;;;4.20;;
44143;SDS011;43510;51.920;4.492;2023-02-23T18:06:05;22.05;;;3.75;;
44143;SDS011;43510;51.920;4.492;2023-02-23T18:08:33;17.77;;;3.53;;
44143;SDS011;43510;51.920;4.492;2023-02-23T18:10:59;15.98;;;2.85;;
44143;SDS011;43510;51.920;4.492;2023-02-23T18:13:25;34.92;;;3.50;;
44143;SDS011;43510;51.920;4.492;2023-02-23T18:15:52;28.60;;;5.13;;
44143;SDS011;43510;51.920;4.492;2023-02-23T18:18:23;28.05;;;4.38;;
44143;SDS011;43510;51.920;4.492;2023-02-23T18:20:50;20.35;;;3.42;;
44143;SDS011;43510;51.920;4.492;2023-02-23T18:23:18;27.20;;;4.07;;
44143;SDS011;43510;51.920;4.492;2023-02-23T18:25:45;43.78;;;4.22;;
44143;SDS011;43510;51.920;4.492;2023-02-23T18:28:12;21.00;;;3.80;;
44143;SDS011;43510;51.920;4.492;2023-02-23T18:30:38;23.38;;;4.03;;
44143;SDS011;43510;51.920;4.492;2023-02-23T18:33:05;32.70;;;4.10;;
44143;SDS011;43510;51.920;4.492;2023-02-23T18:35:35;23.98;;;2.67;;
44143;SDS011;43510;51.920;4.492;2023-02-23T18:38:09;22.00;;;3.35;;
44143;SDS011;43510;51.920;4.492;2023-02-23T18:40:36;16.00;;;2.67;;
44143;SDS011;43510;51.920;4.492;2023-02-23T18:43:02;19.55;;;2.90;;
44143;SDS011;43510;51.920;4.492;2023-02-23T18:45:27;20.90;;;2.85;;
44143;SDS011;43510;51.920;4.492;2023-02-23T18:47:54;21.02;;;2.72;;
44143;SDS011;43510;51.920;4.492;2023-02-23T18:50:20;20.63;;;2.97;;
44143;SDS011;43510;51.920;4.492;2023-02-23T18:52:47;12.65;;;3.33;;
44143;SDS011;43510;51.920;4.492;2023-02-23T18:55:15;17.25;;;3.35;;
44143;SDS011;43510;51.920;4.492;2023-02-23T18:57:41;27.75;;;3.22;;
44143;SDS011;43510;51.920;4.492;2023-02-23T19:00:06;16.85;;;2.80;;
44143;SDS011;43510;51.920;4.492;2023-02-23T19:02:37;27.58;;;3.47;;
44143;SDS011;43510;51.920;4.492;2023-02-23T19:05:04;32.08;;;3.15;;
44143;SDS011;43510;51.920;4.492;2023-02-23T19:07:30;23.85;;;3.90;;
44143;SDS011;43510;51.920;4.492;2023-02-23T19:09:56;14.57;;;3.55;;
44143;SDS011;43510;51.920;4.492;2023-02-23T19:12:27;21.13;;;3.83;;
44143;SDS011;43510;51.920;4.492;2023-02-23T19:14:53;24.08;;;3.10;;
44143;SDS011;43510;51.920;4.492;2023-02-23T19:17:22;14.38;;;2.33;;
44143;SDS011;43510;51.920;4.492;2023-02-23T19:19:49;20.88;;;3.70;;
44143;SDS011;43510;51.920;4.492;2023-02-23T19:22:14;11.77;;;2.33;;
44143;SDS011;43510;51.920;4.492;2023-02-23T19:24:39;20.48;;;3.10;;
44143;SDS011;43510;51.920;4.492;2023-02-23T19:27:06;33.10;;;3.83;;
44143;SDS011;43510;51.920;4.492;2023-02-23T19:29:36;10.68;;;3.25;;
44143;SDS011;43510;51.920;4.492;2023-02-23T19:44:58;19.83;;;3.13;;
44143;SDS011;43510;51.920;4.492;2023-02-23T19:47:23;15.18;;;2.88;;
44143;SDS011;43510;51.920;4.492;2023-02-23T19:49:49;13.60;;;2.50;;
44143;SDS011;43510;51.920;4.492;2023-02-23T19:52:14;17.05;;;2.25;;
44143;SDS011;43510;51.920;4.492;2023-02-23T19:54:40;18.45;;;3.45;;
44143;SDS011;43510;51.920;4.492;2023-02-23T19:57:05;18.70;;;2.65;;
44143;SDS011;43510;51.920;4.492;2023-02-23T19:59:30;14.65;;;3.13;;
44143;SDS011;43510;51.920;4.492;2023-02-23T20:01:56;17.63;;;4.15;;
44143;SDS011;43510;51.920;4.492;2023-02-23T20:04:21;17.27;;;3.42;;
44143;SDS011;43510;51.920;4.492;2023-02-23T20:06:46;21.02;;;3.30;;
44143;SDS011;43510;51.920;4.492;2023-02-23T20:09:12;15.45;;;2.53;;
44143;SDS011;43510;51.920;4.492;2023-02-23T20:11:38;24.08;;;3.60;;
44143;SDS011;43510;51.920;4.492;2023-02-23T20:14:04;15.93;;;2.25;;
44143;SDS011;43510;51.920;4.492;2023-02-23T20:16:32;19.20;;;2.50;;
44143;SDS011;43510;51.920;4.492;2023-02-23T20:18:58;14.73;;;2.65;;
44143;SDS011;43510;51.920;4.492;2023-02-23T20:21:24;18.42;;;2.45;;
44143;SDS011;43510;51.920;4.492;2023-02-23T20:23:52;9.55;;;1.85;;
44143;SDS011;43510;51.920;4.492;2023-02-23T20:26:26;16.27;;;2.65;;
44143;SDS011;43510;51.920;4.492;2023-02-23T20:28:54;10.20;;;2.35;;
44143;SDS011;43510;51.920;4.492;2023-02-23T20:31:31;20.33;;;2.83;;
44143;SDS011;43510;51.920;4.492;2023-02-23T20:34:00;21.63;;;3.55;;
44143;SDS011;43510;51.920;4.492;2023-02-23T20:36:27;12.02;;;2.33;;
44143;SDS011;43510;51.920;4.492;2023-02-23T20:38:53;11.45;;;2.53;;
44143;SDS011;43510;51.920;4.492;2023-02-23T20:41:18;16.13;;;2.17;;
44143;SDS011;43510;51.920;4.492;2023-02-23T20:43:44;15.05;;;2.38;;
44143;SDS011;43510;51.920;4.492;2023-02-23T20:46:14;20.95;;;2.85;;
44143;SDS011;43510;51.920;4.492;2023-02-23T20:48:40;10.98;;;2.53;;
44143;SDS011;43510;51.920;4.492;2023-02-23T20:51:06;13.07;;;2.35;;
44143;SDS011;43510;51.920;4.492;2023-02-23T20:53:37;17.30;;;2.83;;
44143;SDS011;43510;51.920;4.492;2023-02-23T20:56:04;13.45;;;2.65;;
44143;SDS011;43510;51.920;4.492;2023-02-23T20:58:30;10.32;;;2.25;;
44143;SDS011;43510;51.920;4.492;2023-02-23T21:00:55;11.68;;;2.53;;
44143;SDS011;43510;51.920;4.492;2023-02-23T21:03:22;22.95;;;2.95;;
44143;SDS011;43510;51.920;4.492;2023-02-23T21:05:48;21.13;;;3.45;;
44143;SDS011;43510;51.920;4.492;2023-02-23T21:08:15;15.90;;;2.47;;
44143;SDS011;43510;51.920;4.492;2023-02-23T21:10:41;16.63;;;2.60;;
44143;SDS011;43510;51.920;4.492;2023-02-23T21:13:07;8.77;;;2.20;;
44143;SDS011;43510;51.920;4.492;2023-02-23T21:15:36;11.55;;;2.22;;
